createdAt,value
2022-07-29T00:00:31.103Z,7.25
2022-07-29T00:01:03.521Z,19.95
2022-07-29T00:01:35.928Z,14.00
2022-07-29T00:02:08.235Z,10.07
2022-07-29T00:02:40.913Z,54.42
2022-07-29T00:03:13.964Z,36.15
2022-07-29T00:03:46.399Z,24.88
2022-07-29T00:04:19.460Z,66.75
2022-07-29T00:04:52.334Z,33.92
2022-07-29T00:05:24.750Z,23.95
2022-07-29T00:05:57.117Z,24.85
2022-07-29T00:06:30.472Z,7.15
2022-07-29T00:07:03.016Z,24.92
2022-07-29T00:07:35.265Z,11.90
2022-07-29T00:08:10.747Z,7.60
2022-07-29T00:08:44.960Z,11.45
2022-07-29T00:09:17.318Z,17.92
2022-07-29T00:09:51.965Z,15.27
2022-07-29T00:10:24.835Z,31.15
2022-07-29T00:10:57.140Z,14.55
2022-07-29T00:11:29.475Z,10.63
2022-07-29T00:12:02.459Z,24.08
2022-07-29T00:12:34.914Z,10.45
2022-07-29T00:13:07.393Z,6.97
2022-07-29T00:13:40.434Z,20.42
2022-07-29T00:14:13.018Z,6.40
2022-07-29T00:14:45.561Z,7.25
2022-07-29T00:15:20.702Z,8.50
2022-07-29T00:15:53.128Z,11.65
2022-07-29T00:16:25.492Z,16.58
2022-07-29T00:16:57.870Z,12.35
2022-07-29T00:17:30.086Z,8.18
2022-07-29T00:18:02.493Z,15.35
2022-07-29T00:18:34.805Z,13.93
2022-07-29T00:19:07.790Z,7.70
2022-07-29T00:19:43.788Z,18.75
2022-07-29T00:20:17.925Z,13.85
2022-07-29T00:20:50.251Z,10.90
2022-07-29T00:21:22.920Z,6.95
2022-07-29T00:21:55.149Z,6.55
2022-07-29T00:22:27.396Z,7.00
2022-07-29T00:22:59.864Z,6.28
2022-07-29T00:23:36.448Z,24.23
2022-07-29T00:24:09.346Z,6.88
2022-07-29T00:24:41.691Z,18.63
2022-07-29T00:25:14.404Z,28.67
2022-07-29T00:25:46.733Z,7.85
2022-07-29T00:26:19.123Z,12.73
2022-07-29T00:26:51.627Z,7.90
2022-07-29T00:27:24.120Z,19.42
2022-07-29T00:27:56.461Z,13.18
2022-07-29T00:28:28.807Z,11.25
2022-07-29T00:29:32.625Z,8.20
2022-07-29T00:29:54.143Z,8.85
2022-07-29T00:30:26.518Z,6.57
2022-07-29T00:30:58.855Z,12.30
2022-07-29T00:31:31.645Z,21.70
2022-07-29T00:32:04.371Z,25.25
2022-07-29T00:32:36.979Z,10.50
2022-07-29T00:33:09.348Z,14.75
2022-07-29T00:33:41.843Z,12.30
2022-07-29T00:34:32.745Z,11.32
2022-07-29T00:35:24.217Z,22.60
2022-07-29T00:35:56.536Z,33.92
2022-07-29T00:36:29.881Z,24.52
2022-07-29T00:37:02.257Z,27.55
2022-07-29T00:37:34.697Z,8.55
2022-07-29T00:38:07.161Z,9.07
2022-07-29T00:38:39.590Z,7.90
2022-07-29T00:39:11.793Z,13.57
2022-07-29T00:39:44.183Z,20.13
2022-07-29T00:40:16.673Z,28.40
2022-07-29T00:40:49.152Z,8.23
2022-07-29T00:41:21.830Z,15.35
2022-07-29T00:41:54.215Z,11.68
2022-07-29T00:42:26.649Z,9.85
2022-07-29T00:42:59.328Z,6.72
2022-07-29T00:43:31.873Z,10.63
2022-07-29T00:44:04.261Z,13.20
2022-07-29T00:44:40.229Z,18.60
2022-07-29T00:45:13.393Z,6.78
2022-07-29T00:45:46.194Z,11.00
2022-07-29T00:46:18.575Z,23.25
2022-07-29T00:46:51.035Z,7.57
2022-07-29T00:47:23.547Z,9.57
2022-07-29T00:47:55.964Z,14.55
2022-07-29T00:48:28.227Z,6.90
2022-07-29T00:49:00.891Z,6.97
2022-07-29T00:49:33.879Z,7.00
2022-07-29T00:50:06.680Z,11.77
2022-07-29T00:50:39.385Z,14.52
2022-07-29T00:51:12.416Z,15.68
2022-07-29T00:51:44.781Z,11.20
2022-07-29T00:52:18.832Z,8.95
2022-07-29T00:52:51.865Z,7.18
2022-07-29T00:53:25.036Z,13.10
2022-07-29T00:53:58.161Z,7.93
2022-07-29T00:54:30.614Z,26.80
2022-07-29T00:55:08.526Z,11.05
2022-07-29T00:55:41.591Z,10.20
2022-07-29T00:56:13.878Z,8.35
2022-07-29T00:56:46.480Z,10.30
2022-07-29T00:57:18.813Z,28.55
2022-07-29T00:57:51.483Z,15.52
2022-07-29T00:58:24.164Z,28.35
2022-07-29T00:58:57.698Z,39.25
2022-07-29T00:59:34.889Z,46.60
2022-07-29T01:00:08.921Z,39.75
2022-07-29T01:00:42.094Z,15.48
2022-07-29T01:01:14.645Z,8.05
2022-07-29T01:01:47.262Z,55.78
2022-07-29T01:02:19.767Z,8.60
2022-07-29T01:02:52.358Z,45.40
2022-07-29T01:03:24.737Z,57.88
2022-07-29T01:03:57.071Z,46.42
2022-07-29T01:04:30.916Z,61.08
2022-07-29T01:05:05.147Z,61.42
2022-07-29T01:05:50.361Z,74.40
2022-07-29T01:06:24.541Z,15.43
2022-07-29T01:06:56.917Z,40.10
2022-07-29T01:07:29.929Z,13.88
2022-07-29T01:08:03.239Z,57.28
2022-07-29T01:08:35.813Z,39.08
2022-07-29T01:09:08.795Z,24.67
2022-07-29T01:09:46.168Z,114.20
2022-07-29T01:10:20.111Z,122.30
2022-07-29T01:10:53.169Z,115.53
2022-07-29T01:11:27.181Z,106.88
2022-07-29T01:12:00.290Z,104.70
2022-07-29T01:12:34.639Z,75.40
2022-07-29T01:13:08.423Z,71.82
2022-07-29T01:13:42.592Z,98.68
2022-07-29T01:14:15.871Z,101.40
2022-07-29T01:14:49.101Z,93.75
2022-07-29T01:15:21.846Z,91.78
2022-07-29T01:16:16.562Z,103.13
2022-07-29T01:17:15.550Z,29.27
2022-07-29T01:18:06.609Z,112.38
2022-07-29T01:18:41.120Z,34.72
2022-07-29T01:19:27.609Z,98.85
2022-07-29T01:20:08.285Z,111.97
2022-07-29T01:20:59.026Z,103.82
2022-07-29T01:21:57.725Z,74.90
2022-07-29T01:22:36.485Z,109.03
2022-07-29T01:23:08.780Z,105.03
2022-07-29T01:23:54.297Z,78.50
2022-07-29T01:24:32.873Z,104.28
2022-07-29T01:25:21.190Z,107.68
2022-07-29T01:26:23.162Z,94.05
2022-07-29T01:27:16.305Z,112.78
2022-07-29T01:27:50.606Z,114.53
2022-07-29T01:28:41.245Z,84.28
2022-07-29T01:29:19.771Z,15.68
2022-07-29T01:29:59.996Z,49.58
2022-07-29T01:30:33.734Z,41.20
2022-07-29T01:31:07.528Z,44.50
2022-07-29T01:32:00.550Z,72.88
2022-07-29T01:32:36.673Z,28.60
2022-07-29T01:33:12.163Z,8.82
2022-07-29T01:33:52.711Z,49.58
2022-07-29T01:34:28.376Z,57.38
2022-07-29T01:35:10.322Z,60.22
2022-07-29T01:35:43.178Z,49.47
2022-07-29T01:36:25.790Z,11.05
2022-07-29T01:37:06.887Z,25.77
2022-07-29T01:37:44.038Z,42.97
2022-07-29T01:38:21.754Z,27.30
2022-07-29T01:39:13.459Z,25.10
2022-07-29T01:39:48.316Z,43.53
2022-07-29T01:40:26.847Z,26.73
2022-07-29T01:41:10.711Z,21.08
2022-07-29T01:41:47.728Z,10.93
2022-07-29T01:42:26.215Z,63.63
2022-07-29T01:42:59.245Z,89.40
2022-07-29T01:43:38.413Z,37.40
2022-07-29T01:44:14.241Z,73.65
2022-07-29T01:44:58.331Z,85.22
2022-07-29T01:45:50.983Z,45.65
2022-07-29T01:46:28.760Z,97.03
2022-07-29T01:47:03.477Z,80.90
2022-07-29T01:47:41.475Z,78.72
2022-07-29T01:48:19.319Z,40.03
2022-07-29T01:48:56.336Z,38.55
2022-07-29T01:49:31.182Z,8.45
2022-07-29T01:50:07.245Z,36.45
2022-07-29T01:50:45.054Z,24.88
2022-07-29T01:51:17.394Z,56.75
2022-07-29T01:51:49.784Z,52.67
2022-07-29T01:52:29.134Z,12.20
2022-07-29T01:53:03.507Z,19.02
2022-07-29T01:53:38.112Z,22.40
2022-07-29T01:54:29.804Z,30.10
2022-07-29T01:55:05.579Z,45.80
2022-07-29T01:55:40.313Z,11.27
2022-07-29T01:56:13.477Z,32.15
2022-07-29T01:56:48.278Z,12.90
2022-07-29T01:57:22.233Z,18.02
2022-07-29T01:57:55.318Z,15.70
2022-07-29T01:58:28.371Z,14.55
2022-07-29T01:59:02.122Z,8.02
2022-07-29T01:59:36.023Z,28.02
2022-07-29T02:00:09.345Z,27.40
2022-07-29T02:00:45.671Z,19.65
2022-07-29T02:01:19.342Z,14.95
2022-07-29T02:01:54.406Z,12.13
2022-07-29T02:02:27.821Z,10.25
2022-07-29T02:03:01.825Z,11.82
2022-07-29T02:03:34.639Z,12.85
2022-07-29T02:04:08.144Z,8.48
2022-07-29T02:04:41.600Z,23.80
2022-07-29T02:05:15.921Z,15.90
2022-07-29T02:05:49.301Z,10.23
2022-07-29T02:06:23.171Z,9.68
2022-07-29T02:06:58.264Z,18.33
2022-07-29T02:07:32.933Z,9.23
2022-07-29T02:08:05.977Z,7.85
2022-07-29T02:08:39.715Z,9.02
2022-07-29T02:09:13.436Z,8.50
2022-07-29T02:09:46.994Z,9.38
2022-07-29T02:10:21.279Z,28.15
2022-07-29T02:10:59.277Z,10.73
2022-07-29T02:11:32.882Z,16.13
2022-07-29T02:12:07.109Z,10.05
2022-07-29T02:12:40.405Z,10.25
2022-07-29T02:13:13.981Z,28.85
2022-07-29T02:13:47.669Z,43.05
2022-07-29T02:14:20.486Z,11.38
2022-07-29T02:14:54.366Z,12.90
2022-07-29T02:15:27.849Z,12.75
2022-07-29T02:16:01.234Z,29.75
2022-07-29T02:16:34.657Z,8.77
2022-07-29T02:17:07.259Z,23.67
2022-07-29T02:17:44.317Z,17.27
2022-07-29T02:18:20.497Z,39.28
2022-07-29T02:18:54.984Z,25.75
2022-07-29T02:19:28.362Z,23.80
2022-07-29T02:20:01.913Z,30.52
2022-07-29T02:20:34.722Z,9.00
2022-07-29T02:21:07.290Z,24.38
2022-07-29T02:21:47.831Z,15.75
2022-07-29T02:22:20.938Z,42.33
2022-07-29T02:22:54.281Z,8.25
2022-07-29T02:23:27.441Z,8.10
2022-07-29T02:24:01.180Z,9.57
2022-07-29T02:24:34.632Z,43.92
2022-07-29T02:25:13.860Z,21.27
2022-07-29T02:25:47.705Z,16.27
2022-07-29T02:26:24.339Z,24.77
2022-07-29T02:26:57.696Z,8.98
2022-07-29T02:27:30.710Z,35.58
2022-07-29T02:28:03.778Z,8.82
2022-07-29T02:28:36.406Z,8.18
2022-07-29T02:29:09.936Z,20.00
2022-07-29T02:29:42.917Z,25.60
2022-07-29T02:30:15.673Z,29.02
2022-07-29T02:30:49.543Z,22.80
2022-07-29T02:31:24.275Z,19.45
2022-07-29T02:31:58.464Z,18.38
2022-07-29T02:32:32.108Z,20.75
2022-07-29T02:33:05.267Z,20.33
2022-07-29T02:33:38.819Z,21.50
2022-07-29T02:34:12.128Z,15.25
2022-07-29T02:34:44.833Z,14.38
2022-07-29T02:35:18.127Z,26.52
2022-07-29T02:35:51.446Z,14.95
2022-07-29T02:36:24.943Z,15.27
2022-07-29T02:36:57.297Z,16.42
2022-07-29T02:37:30.833Z,23.70
2022-07-29T02:38:22.796Z,12.68
2022-07-29T02:38:58.810Z,18.02
2022-07-29T02:39:31.330Z,38.67
2022-07-29T02:40:04.398Z,34.92
2022-07-29T02:40:39.381Z,9.32
2022-07-29T02:41:14.835Z,15.50
2022-07-29T02:41:47.130Z,11.07
2022-07-29T02:42:19.930Z,7.80
2022-07-29T02:42:52.388Z,7.38
2022-07-29T02:43:25.203Z,8.05
2022-07-29T02:43:59.657Z,8.50
2022-07-29T02:44:34.885Z,10.50
2022-07-29T02:45:07.774Z,9.27
2022-07-29T02:45:40.224Z,26.38
2022-07-29T02:46:28.921Z,22.65
2022-07-29T02:47:21.862Z,21.85
2022-07-29T02:47:56.499Z,13.88
2022-07-29T02:48:33.119Z,9.65
2022-07-29T02:49:10.473Z,17.90
2022-07-29T02:50:15.312Z,10.18
2022-07-29T02:50:53.181Z,33.15
2022-07-29T02:51:51.882Z,8.77
2022-07-29T02:52:27.702Z,16.33
2022-07-29T02:53:02.409Z,14.05
2022-07-29T02:53:35.827Z,20.30
2022-07-29T02:54:09.159Z,23.02
2022-07-29T02:54:43.859Z,22.08
2022-07-29T02:55:17.777Z,23.55
2022-07-29T02:55:52.834Z,14.68
2022-07-29T02:56:26.795Z,28.40
2022-07-29T02:57:01.964Z,7.70
2022-07-29T02:57:53.843Z,7.75
2022-07-29T02:58:33.498Z,22.45
2022-07-29T02:59:09.301Z,20.75
2022-07-29T02:59:43.371Z,20.52
2022-07-29T03:00:16.713Z,11.88
2022-07-29T03:00:50.077Z,28.17
2022-07-29T03:01:25.195Z,29.73
2022-07-29T03:01:59.003Z,16.77
2022-07-29T03:02:34.425Z,16.52
2022-07-29T03:03:10.121Z,9.77
2022-07-29T03:03:43.564Z,9.30
2022-07-29T03:04:20.859Z,10.95
2022-07-29T03:04:54.071Z,25.67
2022-07-29T03:05:27.241Z,27.20
2022-07-29T03:06:00.947Z,8.50
2022-07-29T03:06:37.962Z,7.95
2022-07-29T03:07:12.517Z,11.13
2022-07-29T03:07:47.197Z,10.75
2022-07-29T03:08:20.829Z,7.25
2022-07-29T03:08:53.939Z,7.22
2022-07-29T03:09:27.161Z,11.05
2022-07-29T03:09:59.897Z,8.20
2022-07-29T03:10:32.942Z,8.30
2022-07-29T03:11:06.885Z,15.07
2022-07-29T03:11:50.116Z,7.97
2022-07-29T03:12:23.517Z,15.63
2022-07-29T03:12:56.536Z,8.25
2022-07-29T03:13:29.368Z,8.25
2022-07-29T03:14:02.243Z,10.25
2022-07-29T03:14:34.807Z,13.55
2022-07-29T03:15:07.357Z,7.35
2022-07-29T03:15:39.938Z,7.82
2022-07-29T03:16:12.738Z,12.35
2022-07-29T03:16:45.410Z,9.55
2022-07-29T03:17:17.767Z,11.55
2022-07-29T03:17:50.600Z,9.27
2022-07-29T03:18:23.005Z,9.55
2022-07-29T03:18:55.765Z,7.97
2022-07-29T03:19:28.261Z,8.10
2022-07-29T03:20:00.793Z,20.88
2022-07-29T03:20:33.436Z,7.47
2022-07-29T03:21:06.008Z,7.95
2022-07-29T03:21:38.530Z,17.00
2022-07-29T03:22:11.027Z,11.48
2022-07-29T03:22:44.781Z,11.55
2022-07-29T03:23:21.973Z,8.13
2022-07-29T03:23:54.349Z,8.30
2022-07-29T03:24:28.036Z,8.02
2022-07-29T03:25:08.434Z,7.88
2022-07-29T03:25:40.851Z,8.63
2022-07-29T03:26:13.740Z,11.20
2022-07-29T03:26:46.039Z,14.85
2022-07-29T03:27:18.398Z,8.38
2022-07-29T03:27:50.859Z,11.05
2022-07-29T03:28:23.801Z,14.65
2022-07-29T03:28:59.326Z,8.05
2022-07-29T03:29:33.876Z,9.20
2022-07-29T03:30:08.266Z,9.18
2022-07-29T03:30:41.527Z,8.38
2022-07-29T03:31:16.992Z,8.73
2022-07-29T03:31:49.413Z,10.98
2022-07-29T03:32:25.251Z,10.43
2022-07-29T03:32:58.129Z,10.80
2022-07-29T03:33:31.580Z,11.32
2022-07-29T03:34:04.020Z,7.60
2022-07-29T03:34:37.376Z,21.40
2022-07-29T03:35:09.923Z,11.27
2022-07-29T03:35:42.759Z,10.30
2022-07-29T03:36:15.283Z,8.00
2022-07-29T03:36:48.024Z,8.80
2022-07-29T03:37:20.375Z,20.00
2022-07-29T03:37:52.780Z,10.05
2022-07-29T03:38:26.030Z,11.43
2022-07-29T03:38:59.705Z,20.67
2022-07-29T03:39:34.196Z,8.93
2022-07-29T03:40:08.373Z,7.97
2022-07-29T03:40:47.712Z,7.65
2022-07-29T03:41:22.340Z,9.00
2022-07-29T03:41:56.310Z,20.33
2022-07-29T03:42:34.311Z,16.65
2022-07-29T03:43:07.779Z,11.43
2022-07-29T03:43:49.273Z,7.30
2022-07-29T03:44:22.813Z,12.43
2022-07-29T03:44:56.841Z,13.80
2022-07-29T03:45:30.467Z,13.63
2022-07-29T03:46:03.464Z,8.40
2022-07-29T03:46:36.860Z,19.77
2022-07-29T03:47:09.553Z,7.43
2022-07-29T03:47:50.940Z,8.90
2022-07-29T03:48:25.416Z,8.40
2022-07-29T03:48:59.658Z,8.73
2022-07-29T03:49:32.212Z,11.93
2022-07-29T03:50:07.338Z,8.68
2022-07-29T03:50:43.487Z,20.50
2022-07-29T03:51:15.870Z,10.07
2022-07-29T03:51:48.655Z,14.32
2022-07-29T03:52:22.059Z,20.75
2022-07-29T03:52:54.367Z,10.48
2022-07-29T03:53:26.688Z,19.63
2022-07-29T03:53:59.251Z,7.45
2022-07-29T03:54:31.616Z,12.13
2022-07-29T03:55:04.643Z,8.70
2022-07-29T03:55:57.141Z,18.80
2022-07-29T03:56:29.990Z,7.07
2022-07-29T03:57:03.074Z,13.38
2022-07-29T03:57:36.160Z,8.40
2022-07-29T03:58:09.205Z,8.38
2022-07-29T03:58:41.587Z,8.32
2022-07-29T03:59:14.639Z,10.40
2022-07-29T03:59:47.576Z,8.20
2022-07-29T04:00:20.642Z,20.25
2022-07-29T04:00:53.493Z,7.07
2022-07-29T04:01:26.279Z,9.25
2022-07-29T04:01:59.169Z,6.75
2022-07-29T04:02:32.662Z,7.97
2022-07-29T04:03:05.423Z,7.88
2022-07-29T04:03:43.220Z,6.88
2022-07-29T04:04:16.055Z,10.00
2022-07-29T04:04:48.780Z,6.65
2022-07-29T04:05:21.317Z,7.35
2022-07-29T04:06:13.909Z,7.15
2022-07-29T04:06:48.234Z,7.90
2022-07-29T04:07:20.861Z,11.32
2022-07-29T04:07:53.189Z,28.08
2022-07-29T04:08:25.602Z,10.20
2022-07-29T04:08:58.005Z,7.68
2022-07-29T04:09:30.490Z,9.27
2022-07-29T04:10:03.045Z,7.32
2022-07-29T04:10:35.723Z,20.45
2022-07-29T04:11:08.388Z,7.57
2022-07-29T04:12:01.979Z,8.02
2022-07-29T04:12:33.791Z,22.17
2022-07-29T04:13:06.140Z,7.97
2022-07-29T04:13:38.635Z,13.70
2022-07-29T04:14:11.173Z,8.38
2022-07-29T04:14:43.645Z,7.30
2022-07-29T04:15:16.074Z,11.27
2022-07-29T04:15:48.650Z,11.85
2022-07-29T04:16:21.091Z,9.35
2022-07-29T04:16:54.192Z,8.02
2022-07-29T04:17:26.489Z,18.92
2022-07-29T04:17:59.286Z,10.00
2022-07-29T04:18:31.615Z,8.60
2022-07-29T04:19:03.940Z,10.27
2022-07-29T04:19:36.475Z,10.68
2022-07-29T04:20:09.073Z,13.32
2022-07-29T04:20:41.888Z,7.00
2022-07-29T04:21:14.183Z,10.18
2022-07-29T04:21:46.651Z,9.85
2022-07-29T04:22:18.910Z,8.23
2022-07-29T04:22:51.369Z,8.02
2022-07-29T04:23:23.692Z,8.60
2022-07-29T04:23:55.981Z,12.25
2022-07-29T04:24:28.623Z,7.50
2022-07-29T04:25:04.056Z,19.48
2022-07-29T04:25:40.287Z,6.57
2022-07-29T04:26:12.806Z,18.92
2022-07-29T04:26:46.481Z,19.10
2022-07-29T04:27:18.844Z,9.68
2022-07-29T04:28:03.478Z,7.40
2022-07-29T04:28:35.835Z,10.50
2022-07-29T04:29:08.173Z,8.50
2022-07-29T04:29:56.902Z,10.77
2022-07-29T04:30:30.884Z,9.15
2022-07-29T04:31:03.310Z,6.68
2022-07-29T04:31:35.918Z,8.95
2022-07-29T04:32:08.405Z,8.85
2022-07-29T04:32:40.884Z,6.90
2022-07-29T04:33:13.244Z,8.40
2022-07-29T04:33:45.651Z,12.18
2022-07-29T04:34:18.955Z,10.98
2022-07-29T04:34:52.153Z,6.78
2022-07-29T04:35:24.663Z,8.23
2022-07-29T04:35:56.990Z,15.38
2022-07-29T04:36:30.189Z,17.02
2022-07-29T04:37:02.780Z,9.23
2022-07-29T04:37:35.127Z,7.25
2022-07-29T04:38:07.917Z,9.32
2022-07-29T04:38:48.000Z,7.97
2022-07-29T04:39:23.080Z,6.68
2022-07-29T04:39:55.711Z,9.30
2022-07-29T04:40:28.826Z,6.95
2022-07-29T04:41:01.249Z,8.65
2022-07-29T04:41:34.626Z,7.47
2022-07-29T04:42:09.098Z,10.45
2022-07-29T04:42:46.477Z,11.90
2022-07-29T04:43:23.149Z,7.55
2022-07-29T04:43:55.764Z,9.32
2022-07-29T04:44:29.950Z,9.63
2022-07-29T04:45:02.755Z,6.97
2022-07-29T04:45:35.066Z,7.80
2022-07-29T04:46:07.873Z,9.77
2022-07-29T04:46:40.326Z,9.57
2022-07-29T04:47:12.871Z,7.40
2022-07-29T04:47:45.249Z,6.88
2022-07-29T04:48:17.618Z,6.43
2022-07-29T04:48:50.613Z,6.90
2022-07-29T04:49:23.199Z,8.85
2022-07-29T04:49:56.384Z,6.93
2022-07-29T04:50:28.892Z,10.93
2022-07-29T04:51:01.242Z,7.38
2022-07-29T04:51:33.571Z,11.88
2022-07-29T04:52:06.445Z,8.10
2022-07-29T04:52:39.208Z,8.38
2022-07-29T04:53:11.531Z,15.32
2022-07-29T04:53:43.912Z,8.88
2022-07-29T04:54:16.502Z,15.85
2022-07-29T04:54:49.515Z,7.50
2022-07-29T04:55:22.060Z,6.88
2022-07-29T04:55:54.379Z,9.40
2022-07-29T04:56:26.797Z,16.67
2022-07-29T04:56:59.123Z,16.75
2022-07-29T04:57:31.530Z,7.13
2022-07-29T04:58:03.873Z,13.32
2022-07-29T04:58:36.649Z,18.58
2022-07-29T04:59:09.104Z,19.50
2022-07-29T04:59:41.546Z,19.95
2022-07-29T05:00:14.195Z,8.40
2022-07-29T05:00:46.534Z,7.38
2022-07-29T05:01:19.106Z,7.95
2022-07-29T05:01:51.634Z,16.38
2022-07-29T05:02:24.145Z,16.55
2022-07-29T05:02:56.590Z,9.15
2022-07-29T05:03:28.966Z,9.82
2022-07-29T05:04:01.384Z,19.63
2022-07-29T05:04:33.763Z,7.53
2022-07-29T05:05:06.709Z,8.63
2022-07-29T05:05:39.024Z,6.55
2022-07-29T05:06:11.322Z,9.75
2022-07-29T05:06:43.807Z,6.88
2022-07-29T05:07:16.272Z,6.57
2022-07-29T05:07:48.673Z,7.32
2022-07-29T05:08:21.197Z,6.90
2022-07-29T05:08:53.640Z,8.43
2022-07-29T05:09:25.913Z,6.90
2022-07-29T05:09:58.244Z,8.88
2022-07-29T05:10:30.805Z,6.57
2022-07-29T05:11:11.983Z,7.50
2022-07-29T05:11:45.435Z,13.43
2022-07-29T05:12:17.722Z,17.83
2022-07-29T05:12:50.489Z,7.53
2022-07-29T05:13:22.779Z,7.60
2022-07-29T05:13:55.077Z,7.90
2022-07-29T05:14:27.731Z,8.50
2022-07-29T05:15:00.802Z,7.53
2022-07-29T05:15:33.769Z,17.42
2022-07-29T05:16:06.335Z,7.05
2022-07-29T05:16:40.368Z,6.75
2022-07-29T05:17:12.684Z,8.13
2022-07-29T05:17:45.448Z,8.20
2022-07-29T05:18:17.882Z,8.23
2022-07-29T05:18:50.275Z,7.15
2022-07-29T05:19:22.644Z,8.10
2022-07-29T05:19:55.133Z,7.25
2022-07-29T05:20:29.641Z,9.18
2022-07-29T05:21:02.175Z,17.58
2022-07-29T05:21:34.493Z,8.95
2022-07-29T05:22:07.076Z,7.28
2022-07-29T05:22:39.431Z,12.23
2022-07-29T05:23:13.962Z,14.05
2022-07-29T05:23:46.349Z,8.18
2022-07-29T05:24:19.671Z,11.10
2022-07-29T05:24:52.355Z,16.55
2022-07-29T05:25:25.154Z,6.90
2022-07-29T05:26:16.557Z,13.43
2022-07-29T05:26:48.867Z,7.43
2022-07-29T05:27:21.207Z,10.77
2022-07-29T05:27:54.367Z,9.50
2022-07-29T05:28:26.783Z,11.13
2022-07-29T05:28:59.264Z,7.20
2022-07-29T05:29:42.804Z,16.23
2022-07-29T05:30:17.796Z,16.02
2022-07-29T05:30:50.635Z,7.07
2022-07-29T05:31:23.393Z,7.82
2022-07-29T05:31:55.924Z,10.57
2022-07-29T05:32:28.276Z,10.02
2022-07-29T05:33:00.653Z,10.00
2022-07-29T05:33:35.865Z,9.93
2022-07-29T05:34:09.188Z,6.90
2022-07-29T05:34:50.748Z,11.18
2022-07-29T05:35:23.954Z,10.93
2022-07-29T05:36:00.300Z,11.80
2022-07-29T05:36:33.324Z,17.75
2022-07-29T05:37:05.726Z,11.45
2022-07-29T05:37:38.253Z,7.90
2022-07-29T05:38:10.577Z,22.40
2022-07-29T05:38:42.950Z,17.00
2022-07-29T05:39:15.334Z,13.77
2022-07-29T05:39:50.637Z,9.23
2022-07-29T05:40:29.447Z,8.00
2022-07-29T05:41:01.915Z,13.63
2022-07-29T05:41:34.374Z,21.55
2022-07-29T05:42:12.878Z,9.48
2022-07-29T05:42:45.388Z,14.50
2022-07-29T05:43:17.983Z,10.88
2022-07-29T05:43:50.305Z,8.45
2022-07-29T05:44:25.330Z,8.07
2022-07-29T05:44:58.007Z,14.48
2022-07-29T05:45:30.432Z,7.70
2022-07-29T05:46:02.914Z,12.52
2022-07-29T05:46:35.768Z,7.47
2022-07-29T05:47:08.716Z,12.38
2022-07-29T05:47:41.081Z,10.32
2022-07-29T05:48:13.495Z,10.73
2022-07-29T05:48:45.972Z,22.73
2022-07-29T05:49:23.082Z,11.25
2022-07-29T05:49:59.748Z,27.25
2022-07-29T05:50:32.428Z,9.23
2022-07-29T05:51:04.825Z,6.90
2022-07-29T05:51:37.349Z,10.98
2022-07-29T05:52:10.099Z,9.80
2022-07-29T05:52:42.504Z,7.72
2022-07-29T05:53:19.978Z,17.48
2022-07-29T05:53:52.882Z,7.13
2022-07-29T05:54:25.335Z,7.82
2022-07-29T05:54:57.894Z,6.95
2022-07-29T05:55:30.184Z,7.70
2022-07-29T05:56:06.538Z,7.55
2022-07-29T05:56:39.030Z,10.65
2022-07-29T05:57:18.048Z,6.45
2022-07-29T05:57:50.373Z,6.60
2022-07-29T05:58:22.730Z,22.55
2022-07-29T05:58:55.283Z,8.35
2022-07-29T05:59:30.470Z,7.40
2022-07-29T06:00:03.171Z,8.75
2022-07-29T06:00:44.797Z,10.45
2022-07-29T06:01:17.312Z,11.02
2022-07-29T06:01:49.834Z,21.15
2022-07-29T06:02:22.409Z,12.02
2022-07-29T06:02:54.788Z,9.48
2022-07-29T06:03:28.470Z,9.52
2022-07-29T06:04:01.137Z,7.35
2022-07-29T06:04:34.923Z,6.22
2022-07-29T06:05:10.615Z,13.05
2022-07-29T06:05:49.216Z,6.47
2022-07-29T06:06:21.606Z,6.82
2022-07-29T06:06:54.915Z,7.53
2022-07-29T06:07:27.200Z,7.45
2022-07-29T06:07:59.541Z,11.80
2022-07-29T06:08:31.835Z,10.95
2022-07-29T06:09:12.514Z,6.95
2022-07-29T06:09:45.681Z,7.90
2022-07-29T06:10:18.100Z,7.95
2022-07-29T06:10:50.432Z,6.80
2022-07-29T06:11:22.769Z,13.35
2022-07-29T06:11:55.141Z,7.25
2022-07-29T06:12:27.588Z,7.53
2022-07-29T06:12:59.865Z,8.98
2022-07-29T06:13:32.634Z,7.78
2022-07-29T06:14:05.363Z,9.05
2022-07-29T06:14:39.081Z,6.60
2022-07-29T06:15:11.504Z,9.60
2022-07-29T06:15:44.302Z,20.65
2022-07-29T06:16:16.768Z,6.90
2022-07-29T06:17:02.781Z,8.02
2022-07-29T06:17:35.137Z,10.32
2022-07-29T06:18:10.318Z,7.82
2022-07-29T06:18:43.383Z,10.88
2022-07-29T06:19:15.890Z,6.53
2022-07-29T06:19:48.356Z,6.22
2022-07-29T06:20:27.080Z,15.85
2022-07-29T06:20:59.792Z,8.32
2022-07-29T06:21:32.554Z,10.98
2022-07-29T06:22:05.020Z,15.95
2022-07-29T06:22:37.619Z,9.55
2022-07-29T06:23:11.111Z,8.95
2022-07-29T06:23:43.471Z,11.38
2022-07-29T06:24:16.935Z,18.80
2022-07-29T06:24:49.469Z,6.63
2022-07-29T06:25:21.816Z,7.70
2022-07-29T06:25:54.235Z,11.73
2022-07-29T06:26:30.868Z,9.18
2022-07-29T06:27:03.893Z,9.25
2022-07-29T06:27:36.242Z,9.35
2022-07-29T06:28:08.942Z,10.70
2022-07-29T06:28:41.297Z,7.78
2022-07-29T06:29:13.727Z,10.05
2022-07-29T06:29:46.041Z,7.18
2022-07-29T06:30:18.982Z,8.25
2022-07-29T06:30:51.367Z,6.28
2022-07-29T06:31:24.177Z,9.43
2022-07-29T06:31:56.590Z,6.38
2022-07-29T06:32:29.013Z,6.00
2022-07-29T06:33:03.006Z,7.50
2022-07-29T06:33:35.379Z,7.95
2022-07-29T06:34:08.304Z,6.53
2022-07-29T06:34:41.241Z,11.85
2022-07-29T06:36:08.946Z,8.90
2022-07-29T06:36:41.378Z,25.38
2022-07-29T06:37:15.752Z,16.77
2022-07-29T06:37:48.856Z,7.00
2022-07-29T06:38:30.780Z,8.50
2022-07-29T06:39:07.933Z,25.45
2022-07-29T06:39:40.232Z,6.65
2022-07-29T06:40:31.332Z,13.75
2022-07-29T06:41:08.707Z,24.02
2022-07-29T06:41:41.173Z,6.70
2022-07-29T06:42:16.356Z,8.85
2022-07-29T06:42:48.918Z,8.15
2022-07-29T06:43:21.385Z,12.82
2022-07-29T06:43:56.770Z,6.70
2022-07-29T06:44:29.455Z,7.97
2022-07-29T06:45:05.021Z,11.38
2022-07-29T06:45:42.633Z,11.05
2022-07-29T06:46:16.252Z,7.50
2022-07-29T06:46:51.167Z,11.23
2022-07-29T06:47:23.524Z,21.92
2022-07-29T06:47:56.099Z,9.13
2022-07-29T06:48:28.714Z,6.80
2022-07-29T06:49:02.794Z,10.02
2022-07-29T06:49:35.150Z,11.15
2022-07-29T06:50:07.850Z,8.63
2022-07-29T06:50:40.923Z,10.30
2022-07-29T06:51:13.236Z,7.72
2022-07-29T06:51:45.486Z,9.50
2022-07-29T06:52:17.809Z,14.55
2022-07-29T06:52:50.744Z,8.25
2022-07-29T06:53:23.369Z,19.20
2022-07-29T06:53:58.391Z,6.80
2022-07-29T06:54:34.516Z,10.00
2022-07-29T06:55:07.285Z,6.55
2022-07-29T06:55:39.672Z,13.85
2022-07-29T06:56:13.882Z,7.45
2022-07-29T06:56:46.485Z,10.95
2022-07-29T06:57:18.807Z,17.98
2022-07-29T06:57:51.414Z,21.65
2022-07-29T06:58:23.883Z,7.72
2022-07-29T06:59:01.480Z,11.73
2022-07-29T06:59:36.048Z,20.95
2022-07-29T07:00:09.040Z,6.72
2022-07-29T07:00:41.701Z,10.20
2022-07-29T07:01:14.169Z,6.90
2022-07-29T07:01:46.825Z,17.48
2022-07-29T07:02:19.203Z,8.93
2022-07-29T07:02:51.693Z,19.30
2022-07-29T07:03:24.165Z,10.93
2022-07-29T07:03:56.546Z,9.70
2022-07-29T07:04:29.659Z,7.53
2022-07-29T07:05:02.190Z,22.75
2022-07-29T07:05:34.676Z,10.35
2022-07-29T07:06:08.231Z,6.68
2022-07-29T07:06:43.211Z,7.85
2022-07-29T07:07:15.698Z,7.80
2022-07-29T07:07:48.033Z,8.95
2022-07-29T07:08:20.666Z,7.72
2022-07-29T07:08:53.069Z,7.30
2022-07-29T07:09:25.429Z,10.20
2022-07-29T07:10:12.622Z,16.67
2022-07-29T07:10:45.453Z,23.35
2022-07-29T07:11:17.835Z,8.07
2022-07-29T07:11:50.144Z,12.88
2022-07-29T07:12:22.662Z,7.32
2022-07-29T07:12:55.060Z,20.95
2022-07-29T07:13:27.419Z,10.32
2022-07-29T07:14:03.425Z,8.93
2022-07-29T07:14:36.452Z,6.38
2022-07-29T07:15:08.952Z,9.30
2022-07-29T07:15:41.638Z,6.80
2022-07-29T07:16:14.221Z,7.70
2022-07-29T07:16:46.650Z,7.28
2022-07-29T07:17:19.159Z,8.27
2022-07-29T07:17:51.661Z,7.90
2022-07-29T07:18:23.959Z,6.90
2022-07-29T07:18:56.349Z,7.15
2022-07-29T07:19:28.623Z,18.75
2022-07-29T07:20:00.956Z,6.70
2022-07-29T07:20:34.469Z,6.85
2022-07-29T07:21:07.093Z,17.55
2022-07-29T07:21:39.431Z,10.90
2022-07-29T07:22:11.914Z,8.35
2022-07-29T07:22:44.445Z,14.05
2022-07-29T07:23:16.816Z,10.30
2022-07-29T07:23:49.156Z,15.68
2022-07-29T07:24:21.656Z,9.07
2022-07-29T07:24:54.061Z,9.85
2022-07-29T07:25:26.699Z,17.38
2022-07-29T07:25:59.254Z,15.50
2022-07-29T07:26:31.703Z,9.20
2022-07-29T07:27:04.179Z,7.93
2022-07-29T07:27:36.579Z,8.60
2022-07-29T07:28:09.011Z,6.65
2022-07-29T07:28:41.463Z,8.23
2022-07-29T07:29:14.191Z,12.50
2022-07-29T07:29:46.478Z,8.95
2022-07-29T07:30:18.817Z,9.00